SARL/AOL METAR and TAF weather

Enter ICAO airport designator
Station Type Date Time Source
SARL METAR 2022/01/26 14:30 UTC NOAA

SARL 261430Z 23017KT 8000 SHRA OVC035 31/23 Q1007


Station Type Date Time Source
SARL Decoded METAR 2022/01/26 14:30 UTC NOAA

Paso De Los Libres Aerodrome, Argentina (SARL) 29-41S 057-09W 70M
Jan 26, 2022 - 09:30 AM EST / 2022.01.26 1430 UTC
Wind: from the SW (230 degrees) at 20 MPH (17 KT):0
Visibility: 4 mile(s):0
Sky conditions: overcast
Weather: rain showers
Temperature: 87 F (31 C)
Heat index: 93.9 F (34.4 C):1
Dew Point: 73 F (23 C)
Relative Humidity: 62%
Pressure (altimeter): 29.74 in. Hg (1007 hPa)
ob: SARL 261430Z 23017KT 8000 SHRA OVC035 31/23 Q1007
cycle: 14

Station Type Date Time Source
SARL TAF UTC NOAA

Error!

Example: see airport list